sensor_id;sensor_type;location;lat;lon;timestamp;P1;durP1;ratioP1;P2;durP2;ratioP2
3959;SDS011;1994;48.640;8.894;2023-03-01T00:01:26;11.33;;;7.53;;
3959;SDS011;1994;48.640;8.894;2023-03-01T00:03:54;11.93;;;7.50;;
3959;SDS011;1994;48.640;8.894;2023-03-01T00:06:21;12.70;;;7.27;;
3959;SDS011;1994;48.640;8.894;2023-03-01T00:08:48;9.67;;;7.00;;
3959;SDS011;1994;48.640;8.894;2023-03-01T00:11:15;12.50;;;7.20;;
3959;SDS011;1994;48.640;8.894;2023-03-01T00:13:45;10.30;;;7.23;;
3959;SDS011;1994;48.640;8.894;2023-03-01T00:16:20;10.53;;;7.17;;
3959;SDS011;1994;48.640;8.894;2023-03-01T00:18:54;12.60;;;7.33;;
3959;SDS011;1994;48.640;8.894;2023-03-01T00:21:21;13.00;;;6.93;;
3959;SDS011;1994;48.640;8.894;2023-03-01T00:23:47;12.97;;;7.20;;
3959;SDS011;1994;48.640;8.894;2023-03-01T00:26:18;10.33;;;6.60;;
3959;SDS011;1994;48.640;8.894;2023-03-01T00:28:45;12.47;;;7.87;;
3959;SDS011;1994;48.640;8.894;2023-03-01T00:31:13;13.17;;;6.83;;
3959;SDS011;1994;48.640;8.894;2023-03-01T00:33:43;14.57;;;7.33;;
3959;SDS011;1994;48.640;8.894;2023-03-01T00:36:09;9.10;;;5.40;;
3959;SDS011;1994;48.640;8.894;2023-03-01T00:38:38;13.37;;;6.87;;
3959;SDS011;1994;48.640;8.894;2023-03-01T00:41:07;12.87;;;7.87;;
3959;SDS011;1994;48.640;8.894;2023-03-01T00:43:39;11.20;;;6.60;;
3959;SDS011;1994;48.640;8.894;2023-03-01T00:46:06;13.60;;;6.40;;
3959;SDS011;1994;48.640;8.894;2023-03-01T00:48:39;11.70;;;7.80;;
3959;SDS011;1994;48.640;8.894;2023-03-01T00:53:44;13.77;;;7.57;;
3959;SDS011;1994;48.640;8.894;2023-03-01T00:56:14;10.03;;;6.20;;
3959;SDS011;1994;48.640;8.894;2023-03-01T00:58:42;13.60;;;7.50;;
3959;SDS011;1994;48.640;8.894;2023-03-01T01:01:09;9.37;;;6.30;;
3959;SDS011;1994;48.640;8.894;2023-03-01T01:08:52;9.80;;;7.20;;
3959;SDS011;1994;48.640;8.894;2023-03-01T01:11:19;13.13;;;6.60;;
3959;SDS011;1994;48.640;8.894;2023-03-01T01:13:47;11.90;;;6.47;;
3959;SDS011;1994;48.640;8.894;2023-03-01T01:16:14;12.83;;;7.23;;
3959;SDS011;1994;48.640;8.894;2023-03-01T01:18:42;20.97;;;8.93;;
3959;SDS011;1994;48.640;8.894;2023-03-01T01:21:10;10.33;;;7.90;;
3959;SDS011;1994;48.640;8.894;2023-03-01T01:23:40;12.17;;;7.70;;
3959;SDS011;1994;48.640;8.894;2023-03-01T01:26:09;10.20;;;6.90;;
3959;SDS011;1994;48.640;8.894;2023-03-01T01:28:50;17.57;;;9.03;;
3959;SDS011;1994;48.640;8.894;2023-03-01T01:31:17;9.80;;;7.90;;
3959;SDS011;1994;48.640;8.894;2023-03-01T01:33:43;14.63;;;8.67;;
3959;SDS011;1994;48.640;8.894;2023-03-01T01:36:09;13.20;;;8.53;;
3959;SDS011;1994;48.640;8.894;2023-03-01T01:38:36;14.23;;;8.63;;
3959;SDS011;1994;48.640;8.894;2023-03-01T01:41:03;12.40;;;7.70;;
3959;SDS011;1994;48.640;8.894;2023-03-01T01:43:32;12.57;;;7.50;;
3959;SDS011;1994;48.640;8.894;2023-03-01T01:48:57;11.10;;;6.23;;
3959;SDS011;1994;48.640;8.894;2023-03-01T01:51:31;8.97;;;6.70;;
3959;SDS011;1994;48.640;8.894;2023-03-01T01:54:08;9.87;;;6.80;;
3959;SDS011;1994;48.640;8.894;2023-03-01T01:56:42;11.17;;;7.37;;
3959;SDS011;1994;48.640;8.894;2023-03-01T01:59:14;13.90;;;6.33;;
3959;SDS011;1994;48.640;8.894;2023-03-01T02:01:40;10.53;;;7.93;;
3959;SDS011;1994;48.640;8.894;2023-03-01T02:04:06;11.33;;;7.30;;
3959;SDS011;1994;48.640;8.894;2023-03-01T02:09:49;11.37;;;7.37;;
3959;SDS011;1994;48.640;8.894;2023-03-01T02:12:18;15.40;;;8.10;;
3959;SDS011;1994;48.640;8.894;2023-03-01T02:14:48;10.60;;;7.17;;
3959;SDS011;1994;48.640;8.894;2023-03-01T02:17:14;16.87;;;7.63;;
3959;SDS011;1994;48.640;8.894;2023-03-01T02:22:35;13.27;;;7.57;;
3959;SDS011;1994;48.640;8.894;2023-03-01T02:30:25;12.07;;;6.90;;
3959;SDS011;1994;48.640;8.894;2023-03-01T02:32:53;15.17;;;8.33;;
3959;SDS011;1994;48.640;8.894;2023-03-01T02:35:27;13.37;;;6.83;;
3959;SDS011;1994;48.640;8.894;2023-03-01T02:38:02;13.80;;;7.77;;
3959;SDS011;1994;48.640;8.894;2023-03-01T02:40:33;13.10;;;7.60;;
3959;SDS011;1994;48.640;8.894;2023-03-01T02:43:01;10.00;;;7.53;;
3959;SDS011;1994;48.640;8.894;2023-03-01T02:45:33;15.43;;;7.63;;
3959;SDS011;1994;48.640;8.894;2023-03-01T02:47:58;14.30;;;7.63;;
3959;SDS011;1994;48.640;8.894;2023-03-01T02:52:57;10.23;;;7.40;;
3959;SDS011;1994;48.640;8.894;2023-03-01T02:55:28;19.50;;;9.30;;
3959;SDS011;1994;48.640;8.894;2023-03-01T02:57:53;12.53;;;8.50;;
3959;SDS011;1994;48.640;8.894;2023-03-01T03:00:22;14.57;;;8.60;;
3959;SDS011;1994;48.640;8.894;2023-03-01T03:03:00;11.03;;;7.83;;
3959;SDS011;1994;48.640;8.894;2023-03-01T03:05:30;10.23;;;6.27;;
3959;SDS011;1994;48.640;8.894;2023-03-01T03:07:57;12.27;;;7.83;;
3959;SDS011;1994;48.640;8.894;2023-03-01T03:10:26;14.93;;;8.83;;
3959;SDS011;1994;48.640;8.894;2023-03-01T03:12:59;16.83;;;8.50;;
3959;SDS011;1994;48.640;8.894;2023-03-01T03:15:28;12.30;;;7.93;;
3959;SDS011;1994;48.640;8.894;2023-03-01T03:17:55;11.30;;;7.57;;
3959;SDS011;1994;48.640;8.894;2023-03-01T03:20:24;11.13;;;8.27;;
3959;SDS011;1994;48.640;8.894;2023-03-01T03:22:54;13.10;;;8.43;;
3959;SDS011;1994;48.640;8.894;2023-03-01T03:25:23;13.90;;;8.17;;
3959;SDS011;1994;48.640;8.894;2023-03-01T03:27:51;12.20;;;8.60;;
3959;SDS011;1994;48.640;8.894;2023-03-01T03:30:21;11.83;;;7.57;;
3959;SDS011;1994;48.640;8.894;2023-03-01T03:32:56;16.20;;;9.40;;
3959;SDS011;1994;48.640;8.894;2023-03-01T03:37:59;12.87;;;7.80;;
3959;SDS011;1994;48.640;8.894;2023-03-01T03:43:06;14.80;;;7.60;;
3959;SDS011;1994;48.640;8.894;2023-03-01T03:45:35;11.33;;;7.20;;
3959;SDS011;1994;48.640;8.894;2023-03-01T03:48:05;15.07;;;8.07;;
3959;SDS011;1994;48.640;8.894;2023-03-01T03:50:38;9.80;;;7.23;;
3959;SDS011;1994;48.640;8.894;2023-03-01T03:53:08;15.03;;;7.63;;
3959;SDS011;1994;48.640;8.894;2023-03-01T03:55:36;10.53;;;6.97;;
3959;SDS011;1994;48.640;8.894;2023-03-01T03:58:04;12.53;;;8.17;;
3959;SDS011;1994;48.640;8.894;2023-03-01T04:00:38;15.33;;;9.40;;
3959;SDS011;1994;48.640;8.894;2023-03-01T04:03:07;17.07;;;8.57;;
3959;SDS011;1994;48.640;8.894;2023-03-01T04:05:35;14.53;;;9.23;;
3959;SDS011;1994;48.640;8.894;2023-03-01T04:08:05;8.37;;;7.33;;
3959;SDS011;1994;48.640;8.894;2023-03-01T04:10:38;17.90;;;8.37;;
3959;SDS011;1994;48.640;8.894;2023-03-01T04:13:11;14.47;;;9.83;;
3959;SDS011;1994;48.640;8.894;2023-03-01T04:15:44;19.40;;;9.53;;
3959;SDS011;1994;48.640;8.894;2023-03-01T04:18:19;15.10;;;8.47;;
3959;SDS011;1994;48.640;8.894;2023-03-01T04:20:48;13.60;;;8.13;;
3959;SDS011;1994;48.640;8.894;2023-03-01T04:23:15;15.60;;;8.87;;
3959;SDS011;1994;48.640;8.894;2023-03-01T04:25:55;15.77;;;9.70;;
3959;SDS011;1994;48.640;8.894;2023-03-01T04:30:55;13.73;;;8.20;;
3959;SDS011;1994;48.640;8.894;2023-03-01T04:33:23;10.83;;;8.33;;
3959;SDS011;1994;48.640;8.894;2023-03-01T04:35:52;12.17;;;8.10;;
3959;SDS011;1994;48.640;8.894;2023-03-01T04:38:18;13.20;;;9.03;;
3959;SDS011;1994;48.640;8.894;2023-03-01T04:40:46;17.87;;;9.17;;
3959;SDS011;1994;48.640;8.894;2023-03-01T04:43:12;14.60;;;7.73;;
3959;SDS011;1994;48.640;8.894;2023-03-01T04:45:42;10.93;;;7.20;;
3959;SDS011;1994;48.640;8.894;2023-03-01T04:48:08;13.93;;;8.70;;
3959;SDS011;1994;48.640;8.894;2023-03-01T04:50:34;11.60;;;8.57;;
3959;SDS011;1994;48.640;8.894;2023-03-01T04:53:03;17.07;;;9.70;;
3959;SDS011;1994;48.640;8.894;2023-03-01T04:55:29;14.70;;;9.07;;
3959;SDS011;1994;48.640;8.894;2023-03-01T04:57:55;10.60;;;7.70;;
3959;SDS011;1994;48.640;8.894;2023-03-01T05:00:21;12.27;;;8.20;;
3959;SDS011;1994;48.640;8.894;2023-03-01T05:03:00;19.90;;;10.07;;
3959;SDS011;1994;48.640;8.894;2023-03-01T05:05:45;13.30;;;8.23;;
3959;SDS011;1994;48.640;8.894;2023-03-01T05:08:13;14.90;;;8.57;;
3959;SDS011;1994;48.640;8.894;2023-03-01T05:10:49;11.17;;;7.10;;
3959;SDS011;1994;48.640;8.894;2023-03-01T05:13:20;14.50;;;8.10;;
3959;SDS011;1994;48.640;8.894;2023-03-01T05:15:53;16.17;;;9.30;;
3959;SDS011;1994;48.640;8.894;2023-03-01T05:18:21;25.83;;;10.03;;
3959;SDS011;1994;48.640;8.894;2023-03-01T05:20:53;22.50;;;9.30;;
3959;SDS011;1994;48.640;8.894;2023-03-01T05:23:34;14.70;;;8.10;;
3959;SDS011;1994;48.640;8.894;2023-03-01T05:26:01;15.27;;;9.03;;
3959;SDS011;1994;48.640;8.894;2023-03-01T05:28:31;17.13;;;8.50;;
3959;SDS011;1994;48.640;8.894;2023-03-01T05:30:57;15.27;;;8.37;;
3959;SDS011;1994;48.640;8.894;2023-03-01T05:33:26;16.77;;;9.33;;
3959;SDS011;1994;48.640;8.894;2023-03-01T05:35:52;13.57;;;8.53;;
3959;SDS011;1994;48.640;8.894;2023-03-01T05:38:19;13.73;;;8.57;;
3959;SDS011;1994;48.640;8.894;2023-03-01T05:40:51;12.00;;;8.57;;
3959;SDS011;1994;48.640;8.894;2023-03-01T05:43:17;12.33;;;8.40;;
3959;SDS011;1994;48.640;8.894;2023-03-01T05:45:43;13.20;;;8.40;;
3959;SDS011;1994;48.640;8.894;2023-03-01T05:48:09;16.17;;;9.30;;
3959;SDS011;1994;48.640;8.894;2023-03-01T05:50:42;12.23;;;8.80;;
3959;SDS011;1994;48.640;8.894;2023-03-01T05:55:41;16.60;;;9.90;;
3959;SDS011;1994;48.640;8.894;2023-03-01T05:58:09;17.10;;;8.30;;
3959;SDS011;1994;48.640;8.894;2023-03-01T06:00:41;15.13;;;9.10;;
3959;SDS011;1994;48.640;8.894;2023-03-01T06:03:09;14.77;;;9.00;;
3959;SDS011;1994;48.640;8.894;2023-03-01T06:05:39;14.77;;;8.33;;
3959;SDS011;1994;48.640;8.894;2023-03-01T06:08:05;12.93;;;8.27;;
3959;SDS011;1994;48.640;8.894;2023-03-01T06:10:35;14.07;;;9.03;;
3959;SDS011;1994;48.640;8.894;2023-03-01T06:13:01;13.77;;;8.53;;
3959;SDS011;1994;48.640;8.894;2023-03-01T06:15:27;17.10;;;10.47;;
3959;SDS011;1994;48.640;8.894;2023-03-01T06:17:53;17.10;;;9.67;;
3959;SDS011;1994;48.640;8.894;2023-03-01T06:20:25;17.40;;;9.63;;
3959;SDS011;1994;48.640;8.894;2023-03-01T06:22:52;17.47;;;9.00;;
3959;SDS011;1994;48.640;8.894;2023-03-01T06:25:19;15.73;;;10.00;;
3959;SDS011;1994;48.640;8.894;2023-03-01T06:27:49;20.40;;;10.63;;
3959;SDS011;1994;48.640;8.894;2023-03-01T06:30:17;13.40;;;9.00;;
3959;SDS011;1994;48.640;8.894;2023-03-01T06:32:48;18.23;;;11.10;;
3959;SDS011;1994;48.640;8.894;2023-03-01T06:35:17;21.10;;;10.57;;
3959;SDS011;1994;48.640;8.894;2023-03-01T06:37:47;24.77;;;10.90;;
3959;SDS011;1994;48.640;8.894;2023-03-01T06:40:13;18.13;;;11.20;;
3959;SDS011;1994;48.640;8.894;2023-03-01T06:42:40;15.87;;;9.90;;
3959;SDS011;1994;48.640;8.894;2023-03-01T06:45:08;25.47;;;12.73;;
3959;SDS011;1994;48.640;8.894;2023-03-01T06:47:35;17.80;;;10.60;;
3959;SDS011;1994;48.640;8.894;2023-03-01T06:50:04;15.17;;;8.50;;
3959;SDS011;1994;48.640;8.894;2023-03-01T06:52:31;16.33;;;10.07;;
3959;SDS011;1994;48.640;8.894;2023-03-01T06:54:56;14.97;;;9.83;;
3959;SDS011;1994;48.640;8.894;2023-03-01T06:57:22;15.67;;;8.93;;
3959;SDS011;1994;48.640;8.894;2023-03-01T06:59:48;15.63;;;9.33;;
3959;SDS011;1994;48.640;8.894;2023-03-01T07:02:14;17.13;;;9.70;;
3959;SDS011;1994;48.640;8.894;2023-03-01T07:04:41;14.77;;;9.70;;
3959;SDS011;1994;48.640;8.894;2023-03-01T07:07:07;16.30;;;10.40;;
3959;SDS011;1994;48.640;8.894;2023-03-01T07:09:34;27.30;;;15.53;;
3959;SDS011;1994;48.640;8.894;2023-03-01T07:12:00;13.63;;;8.80;;
3959;SDS011;1994;48.640;8.894;2023-03-01T07:14:26;17.53;;;10.33;;
3959;SDS011;1994;48.640;8.894;2023-03-01T07:16:55;16.53;;;9.60;;
3959;SDS011;1994;48.640;8.894;2023-03-01T07:19:21;21.30;;;9.33;;
3959;SDS011;1994;48.640;8.894;2023-03-01T07:21:48;13.80;;;9.53;;
3959;SDS011;1994;48.640;8.894;2023-03-01T07:24:14;15.13;;;9.80;;
3959;SDS011;1994;48.640;8.894;2023-03-01T07:26:43;15.23;;;9.67;;
3959;SDS011;1994;48.640;8.894;2023-03-01T07:29:09;15.10;;;9.87;;
3959;SDS011;1994;48.640;8.894;2023-03-01T07:31:36;17.97;;;10.00;;
3959;SDS011;1994;48.640;8.894;2023-03-01T07:34:02;15.63;;;9.50;;
3959;SDS011;1994;48.640;8.894;2023-03-01T07:36:28;10.60;;;7.53;;
3959;SDS011;1994;48.640;8.894;2023-03-01T07:38:54;14.90;;;8.40;;
3959;SDS011;1994;48.640;8.894;2023-03-01T07:41:22;12.57;;;9.07;;
3959;SDS011;1994;48.640;8.894;2023-03-01T07:43:48;16.00;;;9.93;;
3959;SDS011;1994;48.640;8.894;2023-03-01T07:46:14;15.80;;;9.07;;
3959;SDS011;1994;48.640;8.894;2023-03-01T07:48:40;14.30;;;9.37;;
3959;SDS011;1994;48.640;8.894;2023-03-01T07:51:06;11.73;;;8.30;;
3959;SDS011;1994;48.640;8.894;2023-03-01T07:53:35;14.50;;;9.47;;
3959;SDS011;1994;48.640;8.894;2023-03-01T07:56:05;18.77;;;9.40;;
3959;SDS011;1994;48.640;8.894;2023-03-01T07:58:40;16.63;;;10.40;;
3959;SDS011;1994;48.640;8.894;2023-03-01T08:01:08;19.00;;;11.53;;
3959;SDS011;1994;48.640;8.894;2023-03-01T08:03:37;28.23;;;18.63;;
3959;SDS011;1994;48.640;8.894;2023-03-01T08:06:04;21.40;;;10.47;;
3959;SDS011;1994;48.640;8.894;2023-03-01T08:08:33;15.90;;;9.53;;
3959;SDS011;1994;48.640;8.894;2023-03-01T08:11:05;14.60;;;9.07;;
3959;SDS011;1994;48.640;8.894;2023-03-01T08:13:32;15.27;;;9.33;;
3959;SDS011;1994;48.640;8.894;2023-03-01T08:16:02;14.20;;;9.17;;
3959;SDS011;1994;48.640;8.894;2023-03-01T08:18:34;13.73;;;9.00;;
3959;SDS011;1994;48.640;8.894;2023-03-01T08:21:01;13.67;;;9.13;;
3959;SDS011;1994;48.640;8.894;2023-03-01T08:23:32;15.10;;;10.60;;
3959;SDS011;1994;48.640;8.894;2023-03-01T08:28:43;14.43;;;10.67;;
3959;SDS011;1994;48.640;8.894;2023-03-01T08:31:17;19.10;;;10.57;;
3959;SDS011;1994;48.640;8.894;2023-03-01T08:33:53;15.13;;;10.90;;
3959;SDS011;1994;48.640;8.894;2023-03-01T08:36:32;13.50;;;9.83;;
3959;SDS011;1994;48.640;8.894;2023-03-01T08:39:02;19.10;;;9.83;;
3959;SDS011;1994;48.640;8.894;2023-03-01T08:41:29;13.83;;;10.73;;
3959;SDS011;1994;48.640;8.894;2023-03-01T08:43:55;12.63;;;10.27;;
3959;SDS011;1994;48.640;8.894;2023-03-01T08:46:36;12.80;;;10.40;;
3959;SDS011;1994;48.640;8.894;2023-03-01T08:49:06;14.47;;;10.13;;
3959;SDS011;1994;48.640;8.894;2023-03-01T08:51:43;12.30;;;10.03;;
3959;SDS011;1994;48.640;8.894;2023-03-01T08:54:14;12.93;;;10.40;;
3959;SDS011;1994;48.640;8.894;2023-03-01T08:56:45;11.33;;;10.00;;
3959;SDS011;1994;48.640;8.894;2023-03-01T08:59:12;15.50;;;10.57;;
3959;SDS011;1994;48.640;8.894;2023-03-01T09:01:40;13.30;;;10.10;;
3959;SDS011;1994;48.640;8.894;2023-03-01T09:04:10;12.37;;;9.67;;
3959;SDS011;1994;48.640;8.894;2023-03-01T09:06:42;10.90;;;9.03;;
3959;SDS011;1994;48.640;8.894;2023-03-01T09:09:13;13.83;;;11.03;;
3959;SDS011;1994;48.640;8.894;2023-03-01T09:11:41;13.77;;;9.33;;
3959;SDS011;1994;48.640;8.894;2023-03-01T09:14:08;13.03;;;10.53;;
3959;SDS011;1994;48.640;8.894;2023-03-01T09:16:40;13.17;;;10.37;;
3959;SDS011;1994;48.640;8.894;2023-03-01T09:19:18;14.20;;;10.80;;
3959;SDS011;1994;48.640;8.894;2023-03-01T09:21:44;13.90;;;10.10;;
3959;SDS011;1994;48.640;8.894;2023-03-01T09:24:17;15.43;;;11.03;;
3959;SDS011;1994;48.640;8.894;2023-03-01T09:26:46;15.60;;;10.40;;
3959;SDS011;1994;48.640;8.894;2023-03-01T09:29:12;12.57;;;9.93;;
3959;SDS011;1994;48.640;8.894;2023-03-01T09:31:40;14.80;;;9.70;;
3959;SDS011;1994;48.640;8.894;2023-03-01T09:34:06;14.77;;;10.93;;
3959;SDS011;1994;48.640;8.894;2023-03-01T09:36:32;13.90;;;9.80;;
3959;SDS011;1994;48.640;8.894;2023-03-01T09:39:03;12.60;;;10.80;;
3959;SDS011;1994;48.640;8.894;2023-03-01T09:44:29;12.93;;;9.10;;
3959;SDS011;1994;48.640;8.894;2023-03-01T09:46:59;13.23;;;10.60;;
3959;SDS011;1994;48.640;8.894;2023-03-01T09:49:27;11.67;;;10.10;;
3959;SDS011;1994;48.640;8.894;2023-03-01T09:55:26;12.40;;;10.23;;
3959;SDS011;1994;48.640;8.894;2023-03-01T10:01:18;14.37;;;10.20;;
3959;SDS011;1994;48.640;8.894;2023-03-01T10:07:00;12.53;;;9.80;;
3959;SDS011;1994;48.640;8.894;2023-03-01T10:09:34;14.17;;;10.53;;
3959;SDS011;1994;48.640;8.894;2023-03-01T10:12:06;13.10;;;10.83;;
3959;SDS011;1994;48.640;8.894;2023-03-01T10:20:42;11.07;;;9.10;;
3959;SDS011;1994;48.640;8.894;2023-03-01T10:23:24;12.00;;;10.07;;
3959;SDS011;1994;48.640;8.894;2023-03-01T10:31:32;13.97;;;10.40;;
3959;SDS011;1994;48.640;8.894;2023-03-01T10:34:20;10.90;;;9.27;;
3959;SDS011;1994;48.640;8.894;2023-03-01T10:37:19;12.50;;;9.63;;
3959;SDS011;1994;48.640;8.894;2023-03-01T10:42:46;11.67;;;9.43;;
3959;SDS011;1994;48.640;8.894;2023-03-01T10:48:14;12.40;;;10.20;;
3959;SDS011;1994;48.640;8.894;2023-03-01T10:50:51;11.60;;;9.50;;
3959;SDS011;1994;48.640;8.894;2023-03-01T10:53:40;12.50;;;10.07;;
3959;SDS011;1994;48.640;8.894;2023-03-01T10:58:38;12.23;;;8.40;;
3959;SDS011;1994;48.640;8.894;2023-03-01T11:06:34;15.57;;;10.07;;
3959;SDS011;1994;48.640;8.894;2023-03-01T11:11:54;16.07;;;11.33;;
3959;SDS011;1994;48.640;8.894;2023-03-01T11:14:47;13.03;;;9.10;;
3959;SDS011;1994;48.640;8.894;2023-03-01T11:17:30;15.27;;;12.03;;
3959;SDS011;1994;48.640;8.894;2023-03-01T11:22:38;12.87;;;10.20;;
3959;SDS011;1994;48.640;8.894;2023-03-01T11:25:19;12.80;;;9.70;;
3959;SDS011;1994;48.640;8.894;2023-03-01T11:27:54;12.30;;;10.43;;
3959;SDS011;1994;48.640;8.894;2023-03-01T11:33:17;13.03;;;10.70;;
3959;SDS011;1994;48.640;8.894;2023-03-01T11:36:00;11.23;;;9.30;;
3959;SDS011;1994;48.640;8.894;2023-03-01T11:39:03;15.10;;;10.50;;
3959;SDS011;1994;48.640;8.894;2023-03-01T11:41:39;11.00;;;9.80;;
3959;SDS011;1994;48.640;8.894;2023-03-01T11:44:11;14.40;;;9.83;;
3959;SDS011;1994;48.640;8.894;2023-03-01T11:46:55;12.30;;;9.63;;
3959;SDS011;1994;48.640;8.894;2023-03-01T11:49:42;13.20;;;10.40;;
3959;SDS011;1994;48.640;8.894;2023-03-01T11:52:46;18.90;;;10.73;;
3959;SDS011;1994;48.640;8.894;2023-03-01T12:07:00;15.27;;;10.80;;
3959;SDS011;1994;48.640;8.894;2023-03-01T12:19:15;14.30;;;10.60;;
3959;SDS011;1994;48.640;8.894;2023-03-01T12:34:12;15.67;;;11.00;;
3959;SDS011;1994;48.640;8.894;2023-03-01T12:51:22;14.20;;;10.30;;
3959;SDS011;1994;48.640;8.894;2023-03-01T12:53:51;17.80;;;11.60;;
3959;SDS011;1994;48.640;8.894;2023-03-01T12:56:21;16.63;;;10.23;;
3959;SDS011;1994;48.640;8.894;2023-03-01T13:11:01;15.87;;;10.93;;
3959;SDS011;1994;48.640;8.894;2023-03-01T13:13:36;13.23;;;10.57;;
3959;SDS011;1994;48.640;8.894;2023-03-01T13:21:40;17.80;;;12.87;;
3959;SDS011;1994;48.640;8.894;2023-03-01T13:29:53;16.10;;;11.67;;
3959;SDS011;1994;48.640;8.894;2023-03-01T13:32:34;12.13;;;9.00;;
3959;SDS011;1994;48.640;8.894;2023-03-01T13:35:29;25.33;;;8.97;;
3959;SDS011;1994;48.640;8.894;2023-03-01T13:37:51;9.43;;;7.57;;
3959;SDS011;1994;48.640;8.894;2023-03-01T13:42:53;14.67;;;10.07;;
3959;SDS011;1994;48.640;8.894;2023-03-01T13:47:47;11.20;;;9.27;;
3959;SDS011;1994;48.640;8.894;2023-03-01T13:50:21;11.13;;;9.23;;
3959;SDS011;1994;48.640;8.894;2023-03-01T13:52:55;16.07;;;10.30;;
3959;SDS011;1994;48.640;8.894;2023-03-01T13:58:43;13.00;;;9.53;;
3959;SDS011;1994;48.640;8.894;2023-03-01T14:01:37;12.87;;;8.60;;
3959;SDS011;1994;48.640;8.894;2023-03-01T14:04:03;12.67;;;9.80;;
3959;SDS011;1994;48.640;8.894;2023-03-01T14:07:08;11.57;;;7.50;;
3959;SDS011;1994;48.640;8.894;2023-03-01T14:09:55;15.27;;;7.40;;
3959;SDS011;1994;48.640;8.894;2023-03-01T14:15:13;15.40;;;8.90;;
3959;SDS011;1994;48.640;8.894;2023-03-01T14:18:02;13.70;;;10.20;;
3959;SDS011;1994;48.640;8.894;2023-03-01T14:20:37;14.13;;;9.50;;
3959;SDS011;1994;48.640;8.894;2023-03-01T14:23:13;12.43;;;8.70;;
3959;SDS011;1994;48.640;8.894;2023-03-01T14:25:48;14.13;;;8.97;;
3959;SDS011;1994;48.640;8.894;2023-03-01T14:28:28;15.73;;;9.70;;
3959;SDS011;1994;48.640;8.894;2023-03-01T14:30:59;13.90;;;8.47;;
3959;SDS011;1994;48.640;8.894;2023-03-01T14:33:27;17.47;;;11.20;;
3959;SDS011;1994;48.640;8.894;2023-03-01T14:35:59;14.70;;;9.80;;
3959;SDS011;1994;48.640;8.894;2023-03-01T14:38:43;15.30;;;9.97;;
3959;SDS011;1994;48.640;8.894;2023-03-01T14:41:17;15.23;;;9.73;;
3959;SDS011;1994;48.640;8.894;2023-03-01T14:43:49;15.23;;;10.03;;
3959;SDS011;1994;48.640;8.894;2023-03-01T14:46:21;16.40;;;9.30;;
3959;SDS011;1994;48.640;8.894;2023-03-01T14:48:53;18.43;;;10.47;;
3959;SDS011;1994;48.640;8.894;2023-03-01T14:51:27;13.07;;;9.93;;
3959;SDS011;1994;48.640;8.894;2023-03-01T14:53:54;15.03;;;11.10;;
3959;SDS011;1994;48.640;8.894;2023-03-01T14:56:21;16.17;;;10.03;;
3959;SDS011;1994;48.640;8.894;2023-03-01T14:58:47;16.77;;;10.67;;
3959;SDS011;1994;48.640;8.894;2023-03-01T15:01:18;14.77;;;9.53;;
3959;SDS011;1994;48.640;8.894;2023-03-01T15:03:48;14.77;;;9.83;;
3959;SDS011;1994;48.640;8.894;2023-03-01T15:06:17;12.87;;;9.63;;
3959;SDS011;1994;48.640;8.894;2023-03-01T15:08:47;15.00;;;10.17;;
3959;SDS011;1994;48.640;8.894;2023-03-01T15:11:23;15.20;;;9.60;;
3959;SDS011;1994;48.640;8.894;2023-03-01T15:13:55;19.97;;;11.13;;
3959;SDS011;1994;48.640;8.894;2023-03-01T15:16:23;14.37;;;10.50;;
3959;SDS011;1994;48.640;8.894;2023-03-01T15:19:02;13.53;;;8.90;;
3959;SDS011;1994;48.640;8.894;2023-03-01T15:21:32;11.60;;;8.23;;
3959;SDS011;1994;48.640;8.894;2023-03-01T15:26:45;15.80;;;9.17;;
3959;SDS011;1994;48.640;8.894;2023-03-01T15:29:20;13.17;;;9.60;;
3959;SDS011;1994;48.640;8.894;2023-03-01T15:31:58;15.77;;;10.30;;
3959;SDS011;1994;48.640;8.894;2023-03-01T15:34:27;14.90;;;9.70;;
3959;SDS011;1994;48.640;8.894;2023-03-01T15:36:58;13.93;;;8.40;;
3959;SDS011;1994;48.640;8.894;2023-03-01T15:39:38;12.67;;;9.70;;
3959;SDS011;1994;48.640;8.894;2023-03-01T15:45:11;17.83;;;10.30;;
3959;SDS011;1994;48.640;8.894;2023-03-01T15:47:58;18.27;;;10.50;;
3959;SDS011;1994;48.640;8.894;2023-03-01T15:50:56;19.13;;;9.07;;
3959;SDS011;1994;48.640;8.894;2023-03-01T15:53:24;17.43;;;10.00;;
3959;SDS011;1994;48.640;8.894;2023-03-01T15:55:51;16.30;;;9.53;;
3959;SDS011;1994;48.640;8.894;2023-03-01T15:58:21;90.07;;;30.33;;
3959;SDS011;1994;48.640;8.894;2023-03-01T16:00:52;81.03;;;33.23;;
3959;SDS011;1994;48.640;8.894;2023-03-01T16:03:21;88.57;;;34.63;;
3959;SDS011;1994;48.640;8.894;2023-03-01T16:05:48;72.93;;;27.73;;
3959;SDS011;1994;48.640;8.894;2023-03-01T16:08:17;20.57;;;11.43;;
3959;SDS011;1994;48.640;8.894;2023-03-01T16:11:05;19.33;;;10.73;;
3959;SDS011;1994;48.640;8.894;2023-03-01T16:13:36;16.33;;;10.17;;
3959;SDS011;1994;48.640;8.894;2023-03-01T16:16:02;16.97;;;10.53;;
3959;SDS011;1994;48.640;8.894;2023-03-01T16:18:28;26.20;;;14.83;;
3959;SDS011;1994;48.640;8.894;2023-03-01T16:20:53;19.87;;;11.87;;
3959;SDS011;1994;48.640;8.894;2023-03-01T16:23:22;22.03;;;11.70;;
3959;SDS011;1994;48.640;8.894;2023-03-01T16:25:50;17.83;;;10.60;;
3959;SDS011;1994;48.640;8.894;2023-03-01T16:28:16;27.27;;;12.13;;
3959;SDS011;1994;48.640;8.894;2023-03-01T16:30:45;15.50;;;10.53;;
3959;SDS011;1994;48.640;8.894;2023-03-01T16:33:13;23.87;;;13.93;;
3959;SDS011;1994;48.640;8.894;2023-03-01T16:35:39;15.20;;;10.07;;
3959;SDS011;1994;48.640;8.894;2023-03-01T16:38:05;21.50;;;9.70;;
3959;SDS011;1994;48.640;8.894;2023-03-01T16:40:31;22.67;;;13.17;;
3959;SDS011;1994;48.640;8.894;2023-03-01T16:42:57;14.80;;;10.60;;
3959;SDS011;1994;48.640;8.894;2023-03-01T16:45:27;20.27;;;12.30;;
3959;SDS011;1994;48.640;8.894;2023-03-01T16:48:00;27.50;;;16.80;;
3959;SDS011;1994;48.640;8.894;2023-03-01T16:50:27;19.33;;;12.40;;
3959;SDS011;1994;48.640;8.894;2023-03-01T16:52:53;15.20;;;10.40;;
3959;SDS011;1994;48.640;8.894;2023-03-01T16:55:18;17.30;;;11.17;;
3959;SDS011;1994;48.640;8.894;2023-03-01T16:57:45;13.27;;;9.50;;
3959;SDS011;1994;48.640;8.894;2023-03-01T17:00:11;16.43;;;9.97;;
3959;SDS011;1994;48.640;8.894;2023-03-01T17:02:38;21.00;;;9.33;;
3959;SDS011;1994;48.640;8.894;2023-03-01T17:05:06;38.00;;;20.43;;
3959;SDS011;1994;48.640;8.894;2023-03-01T17:07:35;26.07;;;14.53;;
3959;SDS011;1994;48.640;8.894;2023-03-01T17:10:02;39.73;;;22.00;;
3959;SDS011;1994;48.640;8.894;2023-03-01T17:12:30;15.47;;;10.00;;
3959;SDS011;1994;48.640;8.894;2023-03-01T17:14:57;20.40;;;14.13;;
3959;SDS011;1994;48.640;8.894;2023-03-01T17:17:23;19.30;;;13.03;;
3959;SDS011;1994;48.640;8.894;2023-03-01T17:19:49;24.40;;;14.80;;
3959;SDS011;1994;48.640;8.894;2023-03-01T17:22:15;29.40;;;15.63;;
3959;SDS011;1994;48.640;8.894;2023-03-01T17:24:42;33.90;;;15.50;;
3959;SDS011;1994;48.640;8.894;2023-03-01T17:27:10;27.23;;;13.50;;
3959;SDS011;1994;48.640;8.894;2023-03-01T17:29:37;20.07;;;12.30;;
3959;SDS011;1994;48.640;8.894;2023-03-01T17:32:04;19.63;;;12.40;;
3959;SDS011;1994;48.640;8.894;2023-03-01T17:34:31;16.90;;;11.20;;
3959;SDS011;1994;48.640;8.894;2023-03-01T17:36:58;18.83;;;11.67;;
3959;SDS011;1994;48.640;8.894;2023-03-01T17:39:24;18.97;;;12.10;;
3959;SDS011;1994;48.640;8.894;2023-03-01T17:41:52;19.27;;;11.87;;
3959;SDS011;1994;48.640;8.894;2023-03-01T17:44:19;26.43;;;13.50;;
3959;SDS011;1994;48.640;8.894;2023-03-01T17:46:45;22.37;;;11.30;;
3959;SDS011;1994;48.640;8.894;2023-03-01T17:49:11;23.03;;;12.97;;
3959;SDS011;1994;48.640;8.894;2023-03-01T17:51:37;16.53;;;10.87;;
3959;SDS011;1994;48.640;8.894;2023-03-01T17:54:06;16.90;;;11.07;;
3959;SDS011;1994;48.640;8.894;2023-03-01T17:56:32;26.33;;;11.70;;
3959;SDS011;1994;48.640;8.894;2023-03-01T17:58:58;20.37;;;12.03;;
3959;SDS011;1994;48.640;8.894;2023-03-01T18:01:24;21.10;;;11.67;;
3959;SDS011;1994;48.640;8.894;2023-03-01T18:03:50;19.80;;;12.10;;
3959;SDS011;1994;48.640;8.894;2023-03-01T18:06:24;19.13;;;11.97;;
3959;SDS011;1994;48.640;8.894;2023-03-01T18:08:52;22.47;;;12.00;;